Time;durP1;ratioP1;P1;durP2;ratioP2;P2;SDS_P1;SDS_P2;PMS_P1;PMS_P2;Temp;Humidity;BMP_temperature;BMP_pressure;BME280_temperature;BME280_humidity;BME280_pressure;Samples;Min_cycle;Max_cycle;Signal;HPM_P1;HPM_P2
2023/03/22 00:00:27;;;;;;;27.35;15.57;;;;;;;;;;7385907;19;20400;-72
2023/03/22 00:02:54;;;;;;;27.05;15.25;;;;;;;;;;7385898;19;20002;-72
2023/03/22 00:05:19;;;;;;;30.15;15.20;;;;;;;;;;7386860;19;20070;-72
2023/03/22 00:07:45;;;;;;;27.02;15.55;;;;;;;;;;7387920;19;20496;-72
2023/03/22 00:10:10;;;;;;;31.60;15.23;;;;;;;;;;7387327;19;20003;-72
2023/03/22 00:12:35;;;;;;;32.13;15.88;;;;;;;;;;7387517;19;20015;-73
2023/03/22 00:15:01;;;;;;;29.40;15.45;;;;;;;;;;7387799;19;19999;-72
2023/03/22 00:17:27;;;;;;;30.45;15.98;;;;;;;;;;7388114;19;20078;-71
2023/03/22 00:19:53;;;;;;;31.02;15.35;;;;;;;;;;7386106;19;20043;-70
2023/03/22 00:22:19;;;;;;;38.50;17.92;;;;;;;;;;7387620;19;20410;-71
2023/03/22 00:24:44;;;;;;;36.47;16.20;;;;;;;;;;7385596;19;20006;-72
2023/03/22 00:27:09;;;;;;;38.83;15.88;;;;;;;;;;7387306;19;20006;-72
2023/03/22 00:29:35;;;;;;;37.65;16.45;;;;;;;;;;7387578;19;19999;-70
2023/03/22 00:32:00;;;;;;;38.88;17.38;;;;;;;;;;7387169;19;20007;-73
2023/03/22 00:34:30;;;;;;;34.97;16.75;;;;;;;;;;7384465;19;20006;-71
2023/03/22 00:36:55;;;;;;;34.15;16.98;;;;;;;;;;7387989;19;20002;-72
2023/03/22 00:39:21;;;;;;;27.85;15.80;;;;;;;;;;7387336;19;20486;-73
2023/03/22 00:41:46;;;;;;;34.65;15.02;;;;;;;;;;7386691;19;20797;-73
2023/03/22 00:44:12;;;;;;;27.77;14.77;;;;;;;;;;7385690;19;20009;-72
2023/03/22 00:46:37;;;;;;;24.88;15.43;;;;;;;;;;7386900;19;20325;-72
2023/03/22 00:49:03;;;;;;;29.90;15.75;;;;;;;;;;7392766;19;20085;-72
2023/03/22 00:51:28;;;;;;;38.55;16.60;;;;;;;;;;7394016;19;19998;-73
2023/03/22 00:53:53;;;;;;;36.60;16.30;;;;;;;;;;7391382;19;20007;-70
2023/03/22 00:56:21;;;;;;;30.55;14.55;;;;;;;;;;7394344;19;20018;-71
2023/03/22 00:58:47;;;;;;;26.70;15.05;;;;;;;;;;7398100;19;20010;-72
2023/03/22 01:01:13;;;;;;;27.27;15.35;;;;;;;;;;7394381;19;20344;-72
2023/03/22 01:03:40;;;;;;;29.83;16.02;;;;;;;;;;7392110;19;20045;-71
2023/03/22 01:06:06;;;;;;;30.50;15.02;;;;;;;;;;7391915;19;20041;-73
2023/03/22 01:08:31;;;;;;;29.52;15.30;;;;;;;;;;7393178;19;19998;-72
2023/03/22 01:10:58;;;;;;;26.35;14.50;;;;;;;;;;7392566;19;20027;-72
2023/03/22 01:13:23;;;;;;;29.75;16.05;;;;;;;;;;7391958;19;20034;-74
2023/03/22 01:15:50;;;;;;;33.78;15.65;;;;;;;;;;7392931;19;20003;-71
2023/03/22 01:18:15;;;;;;;31.85;15.57;;;;;;;;;;7393522;19;20104;-72
2023/03/22 01:20:41;;;;;;;26.38;14.65;;;;;;;;;;7392123;19;20003;-72
2023/03/22 01:23:06;;;;;;;26.73;15.05;;;;;;;;;;7392669;19;20318;-72
2023/03/22 01:25:31;;;;;;;25.63;14.90;;;;;;;;;;7389836;19;20020;-71
2023/03/22 01:27:57;;;;;;;28.13;14.65;;;;;;;;;;7392416;19;20475;-73
2023/03/22 01:30:22;;;;;;;26.65;14.40;;;;;;;;;;7389851;19;20006;-72
2023/03/22 01:32:47;;;;;;;26.98;13.90;;;;;;;;;;7390958;19;19995;-72
2023/03/22 01:35:13;;;;;;;33.42;14.93;;;;;;;;;;7390468;19;20002;-72
2023/03/22 01:37:38;;;;;;;29.63;15.80;;;;;;;;;;7392266;19;20033;-72
2023/03/22 01:40:04;;;;;;;30.05;15.30;;;;;;;;;;7392108;19;20033;-72
2023/03/22 01:42:30;;;;;;;28.73;16.08;;;;;;;;;;7391352;19;20019;-72
2023/03/22 01:45:13;;;;;;;27.88;16.67;;;;;;;;;;7389959;19;20114;-72
2023/03/22 01:47:42;;;;;;;31.85;16.42;;;;;;;;;;7391759;19;20473;-72
2023/03/22 01:50:07;;;;;;;30.90;16.60;;;;;;;;;;7386099;19;20006;-72
2023/03/22 01:52:34;;;;;;;30.65;16.45;;;;;;;;;;7394827;19;20005;-72
2023/03/22 01:55:00;;;;;;;36.60;17.35;;;;;;;;;;7389176;19;20551;-72
2023/03/22 01:57:25;;;;;;;34.08;17.60;;;;;;;;;;7391924;19;20079;-71
2023/03/22 01:59:51;;;;;;;30.85;17.10;;;;;;;;;;7390145;19;20027;-73
2023/03/22 02:02:20;;;;;;;33.05;17.52;;;;;;;;;;7390850;19;19998;-71
2023/03/22 02:04:49;;;;;;;32.78;17.92;;;;;;;;;;7389496;19;20017;-72
2023/03/22 02:07:26;;;;;;;28.25;16.15;;;;;;;;;;7391741;19;20016;-72
2023/03/22 02:09:54;;;;;;;38.15;16.88;;;;;;;;;;7389541;19;20157;-71
2023/03/22 02:12:55;;;;;;;28.70;16.35;;;;;;;;;;7390966;19;20020;-72
2023/03/22 02:15:42;;;;;;;27.60;15.77;;;;;;;;;;7385870;19;20013;-72
2023/03/22 02:18:19;;;;;;;28.63;14.80;;;;;;;;;;7392779;19;20482;-72
2023/03/22 02:20:47;;;;;;;30.10;15.23;;;;;;;;;;7394339;19;19995;-73
2023/03/22 02:23:54;;;;;;;33.55;16.00;;;;;;;;;;7394551;19;20709;-72
2023/03/22 02:26:20;;;;;;;31.30;15.23;;;;;;;;;;7391761;19;20006;-70
2023/03/22 02:29:03;;;;;;;29.25;15.32;;;;;;;;;;7388595;19;19999;-72
2023/03/22 02:32:00;;;;;;;31.92;15.80;;;;;;;;;;7390351;19;20463;-71
2023/03/22 02:34:56;;;;;;;32.58;15.20;;;;;;;;;;7389036;19;20009;-72
2023/03/22 02:37:45;;;;;;;29.80;14.60;;;;;;;;;;7390629;19;20055;-72
2023/03/22 02:40:16;;;;;;;27.67;15.45;;;;;;;;;;7388642;19;19998;-71
2023/03/22 02:43:08;;;;;;;25.52;14.07;;;;;;;;;;7390468;19;20005;-71
2023/03/22 02:45:42;;;;;;;35.42;15.20;;;;;;;;;;7388957;19;20005;-70
2023/03/22 02:48:14;;;;;;;33.90;16.58;;;;;;;;;;7390820;19;20033;-72
2023/03/22 02:50:50;;;;;;;30.83;15.68;;;;;;;;;;7390528;19;20008;-72
2023/03/22 02:53:28;;;;;;;27.80;15.60;;;;;;;;;;7388468;19;20509;-72
2023/03/22 02:56:00;;;;;;;32.55;15.32;;;;;;;;;;7391375;19;19991;-73
2023/03/22 02:58:35;;;;;;;27.40;15.05;;;;;;;;;;7388714;19;20017;-72
2023/03/22 03:01:07;;;;;;;30.05;15.35;;;;;;;;;;7389700;19;20022;-71
2023/03/22 03:03:36;;;;;;;37.17;16.63;;;;;;;;;;7389012;19;20026;-72
2023/03/22 03:06:09;;;;;;;29.05;15.55;;;;;;;;;;7392889;19;20023;-71
2023/03/22 03:08:38;;;;;;;30.90;15.98;;;;;;;;;;7403122;19;19991;-73
2023/03/22 03:11:03;;;;;;;34.28;17.08;;;;;;;;;;7389828;19;20007;-70
2023/03/22 03:13:29;;;;;;;29.65;15.07;;;;;;;;;;7392273;19;20540;-73
2023/03/22 03:15:58;;;;;;;30.80;15.07;;;;;;;;;;7394581;19;20013;-71
2023/03/22 03:18:45;;;;;;;32.45;15.70;;;;;;;;;;7392773;19;20734;-71
2023/03/22 03:21:17;;;;;;;38.13;17.55;;;;;;;;;;7389590;19;20014;-71
2023/03/22 03:23:48;;;;;;;32.03;16.67;;;;;;;;;;7387178;19;20082;-72
2023/03/22 03:26:34;;;;;;;31.55;16.58;;;;;;;;;;7389781;19;20010;-72
2023/03/22 03:29:04;;;;;;;35.78;16.63;;;;;;;;;;7389689;19;20073;-72
2023/03/22 03:31:44;;;;;;;30.73;15.68;;;;;;;;;;7389036;19;20008;-72
2023/03/22 03:34:18;;;;;;;32.30;16.13;;;;;;;;;;7387849;19;20023;-73
2023/03/22 03:36:51;;;;;;;29.05;15.75;;;;;;;;;;7388786;19;20602;-72
2023/03/22 03:39:18;;;;;;;34.28;16.17;;;;;;;;;;7388064;19;20006;-71
2023/03/22 03:41:46;;;;;;;30.67;15.50;;;;;;;;;;7387738;19;20002;-71
2023/03/22 03:44:15;;;;;;;28.80;14.95;;;;;;;;;;7386715;19;20002;-73
2023/03/22 03:46:40;;;;;;;33.58;15.30;;;;;;;;;;7388403;19;19991;-72
2023/03/22 03:49:10;;;;;;;29.23;15.80;;;;;;;;;;7387413;19;20543;-72
2023/03/22 03:51:46;;;;;;;29.30;15.55;;;;;;;;;;7388903;19;19998;-71
2023/03/22 03:54:11;;;;;;;25.45;14.70;;;;;;;;;;7387876;19;20505;-71
2023/03/22 03:56:36;;;;;;;31.15;15.38;;;;;;;;;;7390001;19;20036;-72
2023/03/22 03:59:02;;;;;;;26.05;14.77;;;;;;;;;;7387706;19;20002;-72
2023/03/22 04:01:27;;;;;;;30.50;15.18;;;;;;;;;;7387063;19;20009;-71
2023/03/22 04:03:54;;;;;;;29.42;15.65;;;;;;;;;;7386752;19;20428;-72
2023/03/22 04:06:19;;;;;;;32.67;17.20;;;;;;;;;;7385476;19;20002;-71
2023/03/22 04:08:45;;;;;;;30.50;16.42;;;;;;;;;;7387547;19;20653;-74
2023/03/22 04:11:10;;;;;;;39.35;17.00;;;;;;;;;;7387450;19;20547;-72
2023/03/22 04:13:35;;;;;;;36.42;16.42;;;;;;;;;;7386234;19;20023;-72
2023/03/22 04:16:01;;;;;;;27.60;15.10;;;;;;;;;;7387100;19;20003;-71
2023/03/22 04:18:28;;;;;;;33.78;16.50;;;;;;;;;;7387091;19;19995;-71
2023/03/22 04:20:55;;;;;;;28.30;15.93;;;;;;;;;;7384298;19;20719;-71
2023/03/22 04:23:22;;;;;;;27.77;14.85;;;;;;;;;;7389174;19;20082;-73
2023/03/22 04:25:49;;;;;;;29.73;15.38;;;;;;;;;;7392458;19;19999;-73
2023/03/22 04:28:14;;;;;;;27.52;14.05;;;;;;;;;;7394135;19;20030;-71
2023/03/22 04:30:40;;;;;;;28.20;14.85;;;;;;;;;;7394676;19;19995;-71
2023/03/22 04:33:05;;;;;;;27.77;14.57;;;;;;;;;;7391924;19;20002;-71
2023/03/22 04:35:32;;;;;;;27.63;14.23;;;;;;;;;;7394452;19;20019;-72
2023/03/22 04:38:00;;;;;;;28.02;15.63;;;;;;;;;;7393363;19;20066;-72
2023/03/22 04:40:27;;;;;;;27.88;14.20;;;;;;;;;;7393437;19;20002;-72
2023/03/22 04:42:56;;;;;;;26.48;14.80;;;;;;;;;;7394070;19;20088;-72
2023/03/22 04:45:22;;;;;;;34.75;15.48;;;;;;;;;;7392651;19;20636;-72
2023/03/22 04:47:47;;;;;;;25.15;14.15;;;;;;;;;;7392203;19;19999;-72
2023/03/22 04:50:13;;;;;;;25.73;14.00;;;;;;;;;;7391685;19;20087;-71
2023/03/22 04:52:38;;;;;;;23.65;12.80;;;;;;;;;;7391791;19;20497;-72
2023/03/22 04:55:04;;;;;;;33.53;14.35;;;;;;;;;;7389255;19;19995;-72
2023/03/22 04:57:29;;;;;;;39.28;12.75;;;;;;;;;;7390119;19;20019;-72
2023/03/22 04:59:54;;;;;;;47.92;13.15;;;;;;;;;;7390258;19;20019;-72
2023/03/22 05:02:20;;;;;;;69.78;15.07;;;;;;;;;;7392519;19;20345;-71
2023/03/22 05:04:45;;;;;;;55.22;14.43;;;;;;;;;;7392210;19;20028;-72
2023/03/22 05:07:10;;;;;;;70.22;16.30;;;;;;;;;;7388910;19;20016;-72
2023/03/22 05:09:36;;;;;;;38.95;14.57;;;;;;;;;;7388495;19;20360;-72
2023/03/22 05:12:01;;;;;;;67.15;15.60;;;;;;;;;;7386781;19;20040;-72
2023/03/22 05:14:26;;;;;;;109.55;16.88;;;;;;;;;;7389880;19;20003;-72
2023/03/22 05:16:52;;;;;;;87.88;15.57;;;;;;;;;;7389160;19;20031;-72
2023/03/22 05:19:21;;;;;;;56.03;13.50;;;;;;;;;;7393464;19;20020;-72
2023/03/22 05:21:46;;;;;;;34.55;12.65;;;;;;;;;;7393570;19;19991;-72
2023/03/22 05:24:12;;;;;;;25.20;14.70;;;;;;;;;;7391560;19;20002;-72
2023/03/22 05:26:41;;;;;;;21.13;12.75;;;;;;;;;;7392716;19;20054;-72
2023/03/22 05:29:08;;;;;;;24.27;13.35;;;;;;;;;;7394863;19;20032;-72
2023/03/22 05:31:33;;;;;;;20.48;12.75;;;;;;;;;;7394135;19;20006;-72
2023/03/22 05:34:00;;;;;;;25.40;13.65;;;;;;;;;;7392099;19;20444;-72
2023/03/22 05:36:28;;;;;;;25.38;14.20;;;;;;;;;;7392335;19;20074;-72
2023/03/22 05:38:54;;;;;;;21.95;12.60;;;;;;;;;;7392604;19;20019;-72
2023/03/22 05:41:19;;;;;;;20.60;12.27;;;;;;;;;;7391506;19;20023;-74
2023/03/22 05:43:45;;;;;;;21.35;12.68;;;;;;;;;;7391172;19;20388;-72
2023/03/22 05:46:11;;;;;;;22.58;13.35;;;;;;;;;;7385758;19;20010;-72
2023/03/22 05:48:38;;;;;;;20.83;11.88;;;;;;;;;;7386102;19;20006;-71
2023/03/22 05:51:08;;;;;;;20.42;12.60;;;;;;;;;;7383426;19;20005;-71
2023/03/22 05:53:35;;;;;;;19.65;12.30;;;;;;;;;;7387055;19;20010;-57
2023/03/22 05:56:00;;;;;;;20.80;12.82;;;;;;;;;;7393358;19;20009;-56
2023/03/22 05:58:29;;;;;;;20.58;12.23;;;;;;;;;;7392802;19;20074;-71
2023/03/22 06:00:55;;;;;;;21.42;13.48;;;;;;;;;;7392754;19;20006;-73
2023/03/22 06:03:21;;;;;;;21.45;12.77;;;;;;;;;;7388905;19;20010;-73
2023/03/22 06:05:49;;;;;;;19.90;12.38;;;;;;;;;;7390844;19;20476;-73
2023/03/22 06:08:15;;;;;;;20.15;11.93;;;;;;;;;;7389367;19;20539;-73
2023/03/22 06:10:41;;;;;;;24.17;13.75;;;;;;;;;;7391055;19;20003;-72
2023/03/22 06:13:06;;;;;;;19.55;12.00;;;;;;;;;;7393023;19;20333;-72
2023/03/22 06:15:31;;;;;;;18.50;11.93;;;;;;;;;;7389604;19;20098;-73
2023/03/22 06:17:56;;;;;;;19.80;11.68;;;;;;;;;;7390768;19;20010;-74
2023/03/22 06:20:22;;;;;;;18.17;11.02;;;;;;;;;;7389495;19;20002;-72
2023/03/22 06:22:47;;;;;;;16.95;11.07;;;;;;;;;;7387494;19;19999;-73
2023/03/22 06:25:13;;;;;;;15.80;10.68;;;;;;;;;;7384265;19;20105;-72
2023/03/22 06:27:39;;;;;;;16.90;10.75;;;;;;;;;;7385527;19;20007;-72
2023/03/22 06:30:05;;;;;;;17.92;11.43;;;;;;;;;;7384159;19;20091;-71
2023/03/22 06:32:30;;;;;;;17.75;11.07;;;;;;;;;;7386168;19;20503;-72
2023/03/22 06:34:55;;;;;;;17.05;10.73;;;;;;;;;;7383054;19;20012;-72
2023/03/22 06:37:22;;;;;;;17.50;10.15;;;;;;;;;;7387732;19;19999;-73
2023/03/22 06:39:47;;;;;;;16.98;10.20;;;;;;;;;;7392160;19;20003;-73
2023/03/22 06:42:12;;;;;;;20.50;11.55;;;;;;;;;;7389072;19;20070;-73
2023/03/22 06:44:41;;;;;;;11.18;6.88;;;;;;;;;;7386771;19;20106;-73
2023/03/22 06:47:07;;;;;;;15.55;9.70;;;;;;;;;;7388823;19;20010;-73
2023/03/22 06:49:33;;;;;;;21.38;11.88;;;;;;;;;;7387479;19;20003;-72
2023/03/22 06:51:58;;;;;;;20.77;11.68;;;;;;;;;;7382266;19;20080;-73
2023/03/22 06:54:23;;;;;;;20.80;12.82;;;;;;;;;;7387823;19;20026;-72
2023/03/22 06:56:49;;;;;;;26.90;12.50;;;;;;;;;;7386119;19;19999;-73
2023/03/22 06:59:14;;;;;;;20.17;12.95;;;;;;;;;;7389446;19;20002;-73
2023/03/22 07:01:40;;;;;;;24.83;13.85;;;;;;;;;;7391460;19;20030;-72
2023/03/22 07:04:05;;;;;;;25.13;12.23;;;;;;;;;;7387721;19;20006;-72
2023/03/22 07:06:31;;;;;;;21.45;12.77;;;;;;;;;;7387898;19;20003;-72
2023/03/22 07:08:57;;;;;;;21.73;13.52;;;;;;;;;;7387966;19;20460;-73
2023/03/22 07:11:24;;;;;;;25.60;13.68;;;;;;;;;;7391027;19;20419;-72
2023/03/22 07:13:50;;;;;;;19.05;12.23;;;;;;;;;;7386753;19;20006;-72
2023/03/22 07:16:15;;;;;;;19.77;12.40;;;;;;;;;;7389282;19;20020;-73
2023/03/22 07:18:41;;;;;;;16.55;10.90;;;;;;;;;;7387816;19;20002;-73
2023/03/22 07:21:06;;;;;;;17.00;10.52;;;;;;;;;;7388691;19;20014;-73
2023/03/22 07:23:31;;;;;;;22.02;12.45;;;;;;;;;;7390361;19;20040;-72
2023/03/22 07:25:59;;;;;;;19.63;10.82;;;;;;;;;;7391952;19;20016;-73
2023/03/22 07:28:24;;;;;;;17.05;11.65;;;;;;;;;;7389540;19;20002;-72
2023/03/22 07:30:59;;;;;;;17.45;10.55;;;;;;;;;;7389686;19;20482;-72
2023/03/22 07:33:24;;;;;;;15.70;10.75;;;;;;;;;;7389675;19;20031;-72
2023/03/22 07:35:50;;;;;;;14.10;9.45;;;;;;;;;;7391134;19;19999;-72
2023/03/22 07:38:15;;;;;;;17.73;10.48;;;;;;;;;;7386196;19;20465;-72
2023/03/22 07:40:40;;;;;;;13.50;9.13;;;;;;;;;;7388494;19;20009;-72
2023/03/22 07:43:05;;;;;;;17.70;8.35;;;;;;;;;;7390090;19;20006;-72
2023/03/22 07:45:31;;;;;;;12.07;8.57;;;;;;;;;;7386778;19;20013;-73
2023/03/22 07:47:56;;;;;;;14.70;7.93;;;;;;;;;;7390168;19;20034;-72
2023/03/22 07:50:21;;;;;;;10.13;7.03;;;;;;;;;;7389435;19;20178;-72
2023/03/22 07:52:47;;;;;;;9.90;7.53;;;;;;;;;;7389927;19;19994;-73
2023/03/22 07:55:13;;;;;;;11.60;6.97;;;;;;;;;;7387540;19;20092;-72
2023/03/22 07:57:39;;;;;;;10.20;6.75;;;;;;;;;;7389033;19;20023;-72
2023/03/22 08:00:07;;;;;;;10.00;6.35;;;;;;;;;;7387188;19;20007;-72
2023/03/22 08:02:32;;;;;;;11.40;6.70;;;;;;;;;;7387064;19;20026;-72
2023/03/22 08:04:58;;;;;;;10.52;6.25;;;;;;;;;;7387138;19;20464;-72
2023/03/22 08:07:26;;;;;;;9.35;5.68;;;;;;;;;;7389520;19;20448;-72
2023/03/22 08:09:51;;;;;;;8.55;5.60;;;;;;;;;;7386340;19;20002;-72
2023/03/22 08:12:17;;;;;;;10.60;5.70;;;;;;;;;;7390441;19;19998;-72
2023/03/22 08:14:46;;;;;;;14.38;5.93;;;;;;;;;;7386889;19;20029;-72
2023/03/22 08:17:12;;;;;;;10.05;4.95;;;;;;;;;;7388880;19;20032;-72
2023/03/22 08:19:37;;;;;;;10.07;4.97;;;;;;;;;;7389401;19;19998;-72
2023/03/22 08:22:03;;;;;;;8.23;3.90;;;;;;;;;;7385788;19;20006;-72
2023/03/22 08:24:29;;;;;;;11.02;4.63;;;;;;;;;;7385118;19;20002;-72
2023/03/22 08:26:55;;;;;;;9.90;3.95;;;;;;;;;;7387449;19;20345;-72
2023/03/22 08:29:22;;;;;;;6.68;3.67;;;;;;;;;;7388822;19;20008;-72
2023/03/22 08:31:47;;;;;;;8.88;3.67;;;;;;;;;;7388524;19;20012;-72
2023/03/22 08:34:13;;;;;;;9.13;3.75;;;;;;;;;;7385364;19;20397;-72
2023/03/22 08:36:38;;;;;;;9.60;3.80;;;;;;;;;;7385706;19;20002;-72
2023/03/22 08:39:04;;;;;;;8.60;3.65;;;;;;;;;;7387876;19;20002;-72
2023/03/22 08:41:29;;;;;;;6.00;3.03;;;;;;;;;;7388102;19;20026;-72
2023/03/22 08:43:55;;;;;;;8.98;3.30;;;;;;;;;;7383898;19;20074;-72
2023/03/22 08:46:20;;;;;;;7.35;3.10;;;;;;;;;;7388503;19;20010;-72
2023/03/22 08:48:52;;;;;;;7.63;3.00;;;;;;;;;;7386810;19;19999;-71
2023/03/22 08:51:19;;;;;;;6.57;3.25;;;;;;;;;;7384953;19;20459;-72
2023/03/22 08:53:45;;;;;;;7.38;2.60;;;;;;;;;;7385210;19;20002;-72
2023/03/22 08:56:11;;;;;;;8.88;2.75;;;;;;;;;;7385448;19;20026;-72
2023/03/22 08:58:36;;;;;;;10.32;2.72;;;;;;;;;;7383775;19;20015;-72
2023/03/22 09:01:01;;;;;;;7.93;2.47;;;;;;;;;;7387236;19;19994;-72
2023/03/22 09:03:27;;;;;;;9.07;2.38;;;;;;;;;;7387356;19;20496;-72
2023/03/22 09:05:52;;;;;;;6.82;2.20;;;;;;;;;;7382914;19;20066;-72
2023/03/22 09:08:17;;;;;;;4.13;2.15;;;;;;;;;;7386082;19;20039;-72
2023/03/22 09:10:43;;;;;;;3.60;2.00;;;;;;;;;;7390759;19;20005;-72
2023/03/22 09:13:08;;;;;;;6.22;2.30;;;;;;;;;;7394294;19;20022;-72
2023/03/22 09:15:33;;;;;;;4.53;2.10;;;;;;;;;;7395848;19;20472;-71
2023/03/22 09:17:59;;;;;;;6.22;1.95;;;;;;;;;;7392385;19;20002;-71
2023/03/22 09:20:24;;;;;;;4.63;1.90;;;;;;;;;;7390624;19;20009;-71
2023/03/22 09:22:50;;;;;;;3.20;2.20;;;;;;;;;;7394022;19;20007;-71
2023/03/22 09:25:16;;;;;;;4.95;2.03;;;;;;;;;;7391824;19;20010;-71
2023/03/22 09:27:41;;;;;;;5.28;2.15;;;;;;;;;;7393780;19;19998;-71
2023/03/22 09:30:07;;;;;;;6.05;2.30;;;;;;;;;;7392205;19;20026;-71
2023/03/22 09:32:32;;;;;;;2.78;1.73;;;;;;;;;;7393014;19;19994;-71
2023/03/22 09:34:58;;;;;;;4.68;1.85;;;;;;;;;;7391465;19;20592;-71
2023/03/22 09:37:29;;;;;;;5.32;2.33;;;;;;;;;;7395353;19;19998;-72
2023/03/22 09:39:54;;;;;;;6.95;2.10;;;;;;;;;;7392440;19;20451;-71
2023/03/22 09:42:38;;;;;;;4.95;2.03;;;;;;;;;;7392113;19;19995;-71
2023/03/22 09:45:11;;;;;;;5.63;2.05;;;;;;;;;;7391430;19;20403;-71
2023/03/22 09:47:40;;;;;;;6.78;2.13;;;;;;;;;;7393103;19;20066;-70
2023/03/22 09:50:20;;;;;;;6.05;2.72;;;;;;;;;;7389548;19;20003;-70
2023/03/22 09:52:45;;;;;;;4.97;1.98;;;;;;;;;;7392744;19;20072;-70
2023/03/22 09:55:37;;;;;;;3.75;1.90;;;;;;;;;;7390739;19;20076;-71
2023/03/22 09:58:21;;;;;;;9.63;2.20;;;;;;;;;;7390636;19;20003;-70
2023/03/22 10:01:15;;;;;;;5.07;2.05;;;;;;;;;;7392377;19;20002;-70
2023/03/22 10:04:02;;;;;;;3.92;2.00;;;;;;;;;;7387745;19;20018;-71
2023/03/22 10:06:27;;;;;;;4.32;2.10;;;;;;;;;;7391733;19;20014;-71
2023/03/22 10:09:15;;;;;;;3.63;1.92;;;;;;;;;;7392446;19;20475;-71
2023/03/22 10:12:13;;;;;;;3.97;2.40;;;;;;;;;;7393264;19;19995;-72
2023/03/22 10:14:41;;;;;;;3.05;1.92;;;;;;;;;;7388433;19;20031;-72
2023/03/22 10:17:17;;;;;;;4.47;2.20;;;;;;;;;;7392572;19;19999;-72
2023/03/22 10:20:07;;;;;;;3.42;1.88;;;;;;;;;;7391961;19;20033;-73
2023/03/22 10:22:36;;;;;;;3.83;2.00;;;;;;;;;;7391521;19;20339;-72
2023/03/22 10:25:05;;;;;;;4.45;1.90;;;;;;;;;;7387632;19;20071;-71
2023/03/22 10:27:31;;;;;;;2.55;1.70;;;;;;;;;;7393283;19;20488;-71
2023/03/22 10:30:05;;;;;;;3.95;1.73;;;;;;;;;;7389583;19;20542;-71
2023/03/22 10:32:39;;;;;;;5.50;2.00;;;;;;;;;;7392478;19;20035;-72
2023/03/22 10:35:05;;;;;;;1.85;1.52;;;;;;;;;;7391173;19;20006;-71
2023/03/22 10:37:33;;;;;;;3.13;1.90;;;;;;;;;;7366656;19;20003;-71
2023/03/22 10:40:05;;;;;;;9.15;2.10;;;;;;;;;;7390771;19;20022;-71
2023/03/22 10:42:31;;;;;;;3.05;1.70;;;;;;;;;;7390632;19;20110;-71
2023/03/22 10:45:01;;;;;;;5.05;1.83;;;;;;;;;;7389412;19;20446;-72
2023/03/22 10:47:41;;;;;;;4.50;1.50;;;;;;;;;;7391901;19;19998;-71
2023/03/22 10:50:18;;;;;;;4.43;1.40;;;;;;;;;;7389381;19;20010;-72
2023/03/22 10:52:55;;;;;;;3.15;1.52;;;;;;;;;;7390937;19;20003;-71
2023/03/22 10:55:20;;;;;;;2.40;1.45;;;;;;;;;;7389861;19;20005;-71
2023/03/22 10:57:57;;;;;;;2.60;1.52;;;;;;;;;;7390330;19;20364;-71
2023/03/22 11:00:24;;;;;;;4.50;1.77;;;;;;;;;;7387023;19;20440;-71
2023/03/22 11:02:57;;;;;;;3.17;1.40;;;;;;;;;;7388341;19;20002;-72
2023/03/22 11:05:28;;;;;;;2.78;1.40;;;;;;;;;;7387699;19;20010;-71
2023/03/22 11:07:56;;;;;;;2.60;1.58;;;;;;;;;;7389920;19;20455;-71
2023/03/22 11:10:31;;;;;;;2.05;1.30;;;;;;;;;;7387864;19;20001;-72
2023/03/22 11:13:06;;;;;;;2.92;1.60;;;;;;;;;;7386488;19;20515;-72
2023/03/22 11:15:35;;;;;;;3.13;1.80;;;;;;;;;;7387178;19;20029;-72
2023/03/22 11:18:04;;;;;;;2.78;1.50;;;;;;;;;;7382612;19;20002;-72
2023/03/22 11:20:31;;;;;;;3.80;1.52;;;;;;;;;;7382388;19;20375;-71
2023/03/22 11:23:02;;;;;;;2.80;1.40;;;;;;;;;;7385609;19;20010;-73
2023/03/22 11:25:30;;;;;;;4.03;1.77;;;;;;;;;;7384792;19;20009;-72
2023/03/22 11:27:55;;;;;;;2.75;1.60;;;;;;;;;;7383012;19;20486;-72
2023/03/22 11:30:27;;;;;;;2.38;1.58;;;;;;;;;;7387453;19;20023;-72
2023/03/22 11:33:07;;;;;;;3.10;1.58;;;;;;;;;;7388013;19;20490;-72
2023/03/22 11:35:35;;;;;;;5.05;1.90;;;;;;;;;;7390854;19;19995;-72
2023/03/22 11:38:01;;;;;;;3.45;1.58;;;;;;;;;;7387987;19;19998;-72
2023/03/22 11:40:30;;;;;;;5.68;1.80;;;;;;;;;;7388679;19;20005;-72
2023/03/22 11:43:23;;;;;;;5.00;2.00;;;;;;;;;;7389704;19;20381;-72
2023/03/22 11:45:54;;;;;;;4.75;2.47;;;;;;;;;;7386220;19;20002;-71
2023/03/22 11:48:28;;;;;;;1.60;1.42;;;;;;;;;;7388498;19;20032;-71
2023/03/22 11:51:02;;;;;;;2.47;1.30;;;;;;;;;;7388829;19;20017;-72
2023/03/22 11:53:31;;;;;;;3.53;1.83;;;;;;;;;;7399401;19;20451;-71
2023/03/22 11:55:57;;;;;;;2.13;1.50;;;;;;;;;;7395997;19;20476;-71
2023/03/22 11:58:45;;;;;;;2.75;1.40;;;;;;;;;;7395913;19;19998;-71
2023/03/22 12:01:20;;;;;;;1.83;1.40;;;;;;;;;;7390213;19;20010;-71
2023/03/22 12:03:54;;;;;;;3.95;1.60;;;;;;;;;;7390731;19;20030;-72
2023/03/22 12:06:34;;;;;;;3.65;1.80;;;;;;;;;;7387412;19;19998;-72
2023/03/22 12:09:09;;;;;;;3.80;1.80;;;;;;;;;;7388813;19;19999;-72
2023/03/22 12:11:40;;;;;;;2.10;1.55;;;;;;;;;;7388982;19;20032;-72
2023/03/22 12:14:15;;;;;;;2.55;1.40;;;;;;;;;;7385759;19;20036;-72
2023/03/22 12:16:47;;;;;;;1.50;1.40;;;;;;;;;;7388062;19;20092;-72
2023/03/22 12:19:43;;;;;;;2.45;1.30;;;;;;;;;;7388464;19;20018;-72
2023/03/22 12:22:13;;;;;;;2.95;1.38;;;;;;;;;;7385842;19;20440;-72
2023/03/22 12:24:39;;;;;;;3.50;1.73;;;;;;;;;;7383809;19;20036;-72
2023/03/22 12:27:13;;;;;;;2.75;1.50;;;;;;;;;;7386109;19;20003;-72
2023/03/22 12:30:03;;;;;;;2.20;1.40;;;;;;;;;;7388548;19;20003;-72
2023/03/22 12:32:34;;;;;;;1.80;1.40;;;;;;;;;;7386741;19;19995;-72
2023/03/22 12:35:00;;;;;;;4.45;1.63;;;;;;;;;;7386335;19;20014;-72
2023/03/22 12:37:31;;;;;;;4.13;1.60;;;;;;;;;;7389039;19;20002;-72
2023/03/22 12:40:22;;;;;;;3.22;1.60;;;;;;;;;;7385631;19;20259;-72
2023/03/22 12:42:50;;;;;;;3.58;1.85;;;;;;;;;;7387466;19;19998;-72
2023/03/22 12:45:25;;;;;;;3.13;1.83;;;;;;;;;;7391437;19;20006;-72
2023/03/22 12:48:12;;;;;;;3.65;1.90;;;;;;;;;;7392933;19;19994;-72
2023/03/22 12:50:52;;;;;;;4.68;1.92;;;;;;;;;;7393308;19;20083;-72
2023/03/22 12:53:20;;;;;;;3.42;1.50;;;;;;;;;;7393419;19;20028;-72
2023/03/22 12:55:47;;;;;;;2.90;1.63;;;;;;;;;;7396209;19;19999;-72
2023/03/22 12:58:18;;;;;;;3.88;2.05;;;;;;;;;;7392884;19;20062;-72
2023/03/22 13:00:48;;;;;;;4.40;1.30;;;;;;;;;;7394319;19;20078;-72
2023/03/22 13:03:17;;;;;;;1.35;1.20;;;;;;;;;;7392497;19;19998;-72
2023/03/22 13:05:47;;;;;;;4.32;1.48;;;;;;;;;;7394310;19;20074;-74
2023/03/22 13:08:18;;;;;;;;;;;;;;;;;;7394248;19;20006;-73
2023/03/22 13:11:01;;;;;;;3.03;1.60;;;;;;;;;;7393491;19;19923;-73
2023/03/22 13:13:27;;;;;;;1.98;1.42;;;;;;;;;;7394524;19;20375;-72
2023/03/22 13:16:12;;;;;;;3.15;1.50;;;;;;;;;;7392780;19;19998;-73
2023/03/22 13:18:37;;;;;;;3.63;1.60;;;;;;;;;;7393592;19;20002;-72
2023/03/22 13:21:13;;;;;;;1.70;1.27;;;;;;;;;;7394400;19;19994;-72
2023/03/22 13:24:01;;;;;;;3.15;1.30;;;;;;;;;;7395641;19;20003;-72
2023/03/22 13:26:53;;;;;;;2.88;1.48;;;;;;;;;;7394032;19;20007;-71
2023/03/22 13:29:24;;;;;;;4.70;1.60;;;;;;;;;;7393192;19;20031;-71
2023/03/22 13:31:49;;;;;;;2.90;1.40;;;;;;;;;;7392251;19;20396;-71
2023/03/22 13:34:18;;;;;;;2.47;1.30;;;;;;;;;;7394066;19;20074;-72
2023/03/22 13:36:53;;;;;;;3.83;1.40;;;;;;;;;;7391398;19;20264;-72
2023/03/22 13:39:21;;;;;;;2.25;1.42;;;;;;;;;;7393801;19;20002;-72
2023/03/22 13:41:48;;;;;;;3.13;1.50;;;;;;;;;;7394898;19;20058;-74
2023/03/22 13:44:19;;;;;;;4.40;1.50;;;;;;;;;;7390707;19;20010;-73
2023/03/22 13:46:50;;;;;;;5.45;1.50;;;;;;;;;;7392939;19;20327;-73
2023/03/22 13:49:45;;;;;;;2.97;1.65;;;;;;;;;;7391697;19;20137;-73
2023/03/22 13:52:23;;;;;;;3.10;1.50;;;;;;;;;;7392265;19;20027;-73
2023/03/22 13:54:51;;;;;;;2.75;1.45;;;;;;;;;;7391739;19;20010;-73
2023/03/22 13:57:48;;;;;;;2.78;1.55;;;;;;;;;;7391529;19;20006;-72
2023/03/22 14:00:36;;;;;;;3.00;1.65;;;;;;;;;;7391596;19;20006;-72
2023/03/22 14:03:15;;;;;;;3.28;1.60;;;;;;;;;;7391675;19;20014;-72
2023/03/22 14:05:43;;;;;;;2.22;1.40;;;;;;;;;;7392131;19;19999;-72
2023/03/22 14:08:19;;;;;;;1.65;1.42;;;;;;;;;;7390327;19;20010;-72
2023/03/22 14:10:51;;;;;;;3.60;1.85;;;;;;;;;;7392258;19;20078;-71
2023/03/22 14:13:39;;;;;;;1.95;1.55;;;;;;;;;;7392376;19;19998;-72
2023/03/22 14:16:11;;;;;;;5.25;1.58;;;;;;;;;;7388363;19;20010;-72
2023/03/22 14:18:43;;;;;;;2.80;1.40;;;;;;;;;;7392023;19;20006;-72
2023/03/22 14:21:15;;;;;;;2.80;1.35;;;;;;;;;;7391260;19;20079;-73
2023/03/22 14:24:00;;;;;;;3.40;1.58;;;;;;;;;;7379916;19;20114;-73
2023/03/22 14:26:31;;;;;;;5.03;1.77;;;;;;;;;;7386491;19;20030;-74
2023/03/22 14:29:06;;;;;;;2.40;1.48;;;;;;;;;;7386169;19;20010;-73
2023/03/22 14:31:32;;;;;;;2.00;1.40;;;;;;;;;;7386039;19;20035;-74
2023/03/22 14:34:04;;;;;;;2.90;1.33;;;;;;;;;;7384929;19;20127;-73
2023/03/22 14:36:36;;;;;;;2.08;1.35;;;;;;;;;;7383263;19;20011;-73
2023/03/22 14:39:18;;;;;;;2.25;1.40;;;;;;;;;;7386347;19;20058;-73
2023/03/22 14:42:07;;;;;;;2.90;1.65;;;;;;;;;;7387491;19;20019;-73
2023/03/22 14:44:40;;;;;;;4.05;1.70;;;;;;;;;;7385153;19;20010;-74